createdAt,value
2022-12-12T00:01:29.705Z,-1.50
2022-12-12T00:04:06.692Z,-1.60
2022-12-12T00:06:44.913Z,-1.50
2022-12-12T00:09:20.513Z,-1.50
2022-12-12T00:11:55.597Z,-1.50
2022-12-12T00:14:30.944Z,-1.50
2022-12-12T00:17:06.092Z,-1.50
2022-12-12T00:19:41.032Z,-1.50
2022-12-12T00:22:18.697Z,-1.60
2022-12-12T00:24:53.186Z,-1.50
2022-12-12T00:27:27.447Z,-1.50
2022-12-12T00:30:03.544Z,-1.50
2022-12-12T00:32:40.061Z,-1.50
2022-12-12T00:35:14.937Z,-1.50
2022-12-12T00:37:53.152Z,-1.50
2022-12-12T00:40:28.373Z,-1.50
2022-12-12T00:43:04.291Z,-1.50
2022-12-12T00:45:38.250Z,-1.50
2022-12-12T00:48:12.707Z,-1.50
2022-12-12T00:50:47.621Z,-1.50
2022-12-12T00:53:25.166Z,-1.40
2022-12-12T00:56:00.286Z,-1.40
2022-12-12T00:58:34.298Z,-1.40
2022-12-12T01:01:12.156Z,-1.40
2022-12-12T01:03:45.388Z,-1.40
2022-12-12T01:06:20.193Z,-1.40
2022-12-12T01:08:57.766Z,-1.40
2022-12-12T01:11:32.054Z,-1.40
2022-12-12T01:14:06.538Z,-1.40
2022-12-12T01:16:47.848Z,-1.40
2022-12-12T01:19:21.196Z,-1.40
2022-12-12T01:21:56.049Z,-1.40
2022-12-12T01:24:33.174Z,-1.40
2022-12-12T01:27:07.519Z,-1.40
2022-12-12T01:29:43.342Z,-1.40
2022-12-12T01:32:18.866Z,-1.40
2022-12-12T01:34:53.601Z,-1.40
2022-12-12T01:37:30.976Z,-1.40
2022-12-12T01:40:10.175Z,-1.40
2022-12-12T01:42:44.572Z,-1.40
2022-12-12T01:45:57.675Z,-1.40
2022-12-12T01:48:33.915Z,-1.40
2022-12-12T01:51:09.613Z,-1.40
2022-12-12T01:53:45.416Z,-1.40
2022-12-12T01:56:24.140Z,-1.40
2022-12-12T01:58:58.669Z,-1.40
2022-12-12T02:01:33.385Z,-1.40
2022-12-12T02:04:08.195Z,-1.40
2022-12-12T02:06:43.869Z,-1.40
2022-12-12T02:09:17.490Z,-1.40
2022-12-12T02:11:55.730Z,-1.40
2022-12-12T02:14:30.152Z,-1.40
2022-12-12T02:17:24.793Z,-1.40
2022-12-12T02:20:34.806Z,-1.40
2022-12-12T02:23:42.116Z,-1.40
2022-12-12T02:26:52.978Z,-1.30
2022-12-12T02:29:47.211Z,-1.30
2022-12-12T02:32:28.117Z,-1.30
2022-12-12T02:35:07.018Z,-1.30
2022-12-12T02:37:42.950Z,-1.30
2022-12-12T02:40:19.033Z,-1.40
2022-12-12T02:42:55.109Z,-1.30
2022-12-12T02:45:32.866Z,-1.30
2022-12-12T02:48:11.767Z,-1.30
2022-12-12T02:50:47.437Z,-1.30
2022-12-12T02:53:22.501Z,-1.40
2022-12-12T02:56:05.531Z,-1.30
2022-12-12T02:58:41.082Z,-1.30
2022-12-12T03:01:18.791Z,-1.30
2022-12-12T03:04:09.407Z,-1.30
2022-12-12T03:07:07.017Z,-1.30
2022-12-12T03:09:49.474Z,-1.30
2022-12-12T03:12:27.828Z,-1.30
2022-12-12T03:15:04.506Z,-1.30
2022-12-12T03:17:43.057Z,-1.30
2022-12-12T03:20:23.140Z,-1.30
2022-12-12T03:22:59.609Z,-1.30
2022-12-12T03:25:37.132Z,-1.30
2022-12-12T03:28:16.137Z,-1.30
2022-12-12T03:30:52.021Z,-1.30
2022-12-12T03:33:28.376Z,-1.30
2022-12-12T03:36:03.556Z,-1.30
2022-12-12T03:38:39.628Z,-1.30
2022-12-12T03:41:15.845Z,-1.30
2022-12-12T03:43:53.342Z,-1.30
2022-12-12T03:46:30.982Z,-1.30
2022-12-12T03:49:07.253Z,-1.30
2022-12-12T03:51:47.323Z,-1.30
2022-12-12T03:54:23.437Z,-1.30
2022-12-12T03:56:58.336Z,-1.30
2022-12-12T03:59:33.909Z,-1.30
2022-12-12T04:02:11.176Z,-1.30
2022-12-12T04:04:48.333Z,-1.30
2022-12-12T04:07:27.528Z,-1.30
2022-12-12T04:10:14.614Z,-1.30
2022-12-12T04:13:03.767Z,-1.30
2022-12-12T04:16:08.475Z,-1.40
2022-12-12T04:18:47.301Z,-1.40
2022-12-12T04:21:37.380Z,-1.40
2022-12-12T04:24:18.925Z,-1.40
2022-12-12T04:26:56.928Z,-1.40
2022-12-12T04:29:42.220Z,-1.40
2022-12-12T04:32:19.132Z,-1.40
2022-12-12T04:34:55.186Z,-1.40
2022-12-12T04:37:30.909Z,-1.40
2022-12-12T04:40:10.036Z,-1.40
2022-12-12T04:42:46.875Z,-1.40
2022-12-12T04:45:23.667Z,-1.40
2022-12-12T04:47:58.657Z,-1.40
2022-12-12T04:50:34.447Z,-1.30
2022-12-12T04:53:18.306Z,-1.30
2022-12-12T04:55:58.057Z,-1.30
2022-12-12T04:58:33.693Z,-1.30
2022-12-12T05:01:11.528Z,-1.30
2022-12-12T05:03:50.986Z,-1.40
2022-12-12T05:06:28.262Z,-1.30
2022-12-12T05:09:02.437Z,-1.30
2022-12-12T05:11:40.608Z,-1.30
2022-12-12T05:14:15.803Z,-1.30
2022-12-12T05:16:51.383Z,-1.30
2022-12-12T05:19:26.482Z,-1.30
2022-12-12T05:22:01.302Z,-1.30
2022-12-12T05:24:36.017Z,-1.30
2022-12-12T05:27:14.092Z,-1.30
2022-12-12T05:29:48.708Z,-1.30
2022-12-12T05:32:23.481Z,-1.30
2022-12-12T05:34:58.116Z,-1.30
2022-12-12T05:37:32.501Z,-1.30
2022-12-12T05:40:11.765Z,-1.30
2022-12-12T05:42:49.330Z,-1.30
2022-12-12T05:45:26.697Z,-1.30
2022-12-12T05:48:02.101Z,-1.30
2022-12-12T05:50:36.501Z,-1.30
2022-12-12T05:53:12.564Z,-1.30
2022-12-12T05:55:47.329Z,-1.30
2022-12-12T05:58:24.407Z,-1.30
2022-12-12T06:01:03.221Z,-1.30
2022-12-12T06:03:38.187Z,-1.30
2022-12-12T06:06:12.968Z,-1.30
2022-12-12T06:08:46.398Z,-1.30
2022-12-12T06:11:21.889Z,-1.20
2022-12-12T06:14:00.537Z,-1.20
2022-12-12T06:16:36.291Z,-1.30
2022-12-12T06:19:10.857Z,-1.20
2022-12-12T06:21:46.217Z,-1.20
2022-12-12T06:24:20.955Z,-1.20
2022-12-12T06:26:53.521Z,-1.20
2022-12-12T06:29:30.998Z,-1.20
2022-12-12T06:32:06.020Z,-1.20
2022-12-12T06:34:41.851Z,-1.20
2022-12-12T06:37:17.462Z,-1.20
2022-12-12T06:39:52.230Z,-1.20
2022-12-12T06:42:25.989Z,-1.10
2022-12-12T06:45:02.982Z,-1.10
2022-12-12T06:47:37.837Z,-1.20
2022-12-12T06:50:13.079Z,-1.10
2022-12-12T06:52:47.895Z,-1.10
2022-12-12T06:55:22.929Z,-1.10
2022-12-12T06:57:57.608Z,-1.00
2022-12-12T07:00:34.775Z,-1.00
2022-12-12T07:03:10.078Z,-1.00
2022-12-12T07:05:44.117Z,-1.00
2022-12-12T07:08:19.226Z,-1.00
2022-12-12T07:10:53.664Z,-1.00
2022-12-12T07:13:27.920Z,-0.90
2022-12-12T07:16:05.533Z,-0.80
2022-12-12T07:18:41.321Z,-0.90
2022-12-12T07:21:18.394Z,-0.80
2022-12-12T07:23:55.190Z,-0.80
2022-12-12T07:26:29.429Z,-0.80
2022-12-12T07:29:06.845Z,-0.80
2022-12-12T07:31:45.047Z,-0.80
2022-12-12T07:34:21.468Z,-0.80
2022-12-12T07:37:03.163Z,-0.80
2022-12-12T07:39:38.927Z,-0.80
2022-12-12T07:42:14.136Z,-0.70
2022-12-12T07:44:50.848Z,-0.70
2022-12-12T07:47:26.406Z,-0.60
2022-12-12T07:50:02.355Z,-0.60
2022-12-12T07:52:37.060Z,-0.50
2022-12-12T07:55:13.257Z,-0.60
2022-12-12T07:57:52.076Z,-0.60
2022-12-12T08:00:27.901Z,-0.60
2022-12-12T08:03:07.894Z,-0.60
2022-12-12T08:05:44.060Z,-0.50
2022-12-12T08:08:19.381Z,-0.50
2022-12-12T08:10:55.214Z,-0.50
2022-12-12T08:13:30.606Z,-0.50
2022-12-12T08:16:05.730Z,-0.50
2022-12-12T08:18:43.032Z,-0.50
2022-12-12T08:21:25.148Z,-0.50
2022-12-12T08:24:00.607Z,-0.50
2022-12-12T08:26:35.859Z,-0.50
2022-12-12T08:29:12.182Z,-0.50
2022-12-12T08:31:47.561Z,-0.50
2022-12-12T08:34:26.402Z,-0.50
2022-12-12T08:37:02.201Z,-0.50
2022-12-12T08:39:37.295Z,-0.50
2022-12-12T08:42:12.621Z,-0.50
2022-12-12T08:44:48.871Z,-0.30
2022-12-12T08:47:24.187Z,-0.20
2022-12-12T08:49:59.421Z,-0.30
2022-12-12T08:52:33.421Z,-0.30
2022-12-12T08:55:10.649Z,-0.20
2022-12-12T08:57:46.977Z,-0.30
2022-12-12T09:00:23.237Z,-0.30
2022-12-12T09:02:58.086Z,-0.30
2022-12-12T09:05:35.912Z,-0.30
2022-12-12T09:08:13.495Z,-0.30
2022-12-12T09:10:51.900Z,-0.30
2022-12-12T09:13:35.819Z,-0.30
2022-12-12T09:16:11.259Z,-0.30
2022-12-12T09:18:49.157Z,-0.30
2022-12-12T09:21:26.825Z,-0.20
2022-12-12T09:24:02.741Z,-0.20
2022-12-12T09:26:36.061Z,-0.20
2022-12-12T09:29:09.246Z,-0.10
2022-12-12T09:31:45.829Z,-0.10
2022-12-12T09:34:19.722Z,0.00
2022-12-12T09:36:58.430Z,-0.10
2022-12-12T09:39:34.038Z,0.00
2022-12-12T09:42:15.504Z,0.00
2022-12-12T09:44:51.304Z,0.00
2022-12-12T09:47:33.863Z,0.00
2022-12-12T09:50:10.271Z,0.00
2022-12-12T09:52:49.112Z,0.10
2022-12-12T09:55:40.983Z,0.10
2022-12-12T09:58:21.115Z,0.10
2022-12-12T10:00:59.160Z,0.20
2022-12-12T10:03:36.757Z,0.20
2022-12-12T10:06:36.573Z,0.20
2022-12-12T10:09:19.721Z,0.20
2022-12-12T10:11:57.264Z,0.20
2022-12-12T10:14:36.508Z,0.20
2022-12-12T10:17:12.197Z,0.20
2022-12-12T10:19:50.464Z,0.20
2022-12-12T10:22:30.325Z,0.20
2022-12-12T10:25:14.939Z,0.20
2022-12-12T10:27:49.815Z,0.20
2022-12-12T10:30:24.989Z,0.20
2022-12-12T10:33:10.559Z,0.30
2022-12-12T10:35:51.502Z,0.20
2022-12-12T10:38:33.656Z,0.20
2022-12-12T10:41:15.082Z,0.30
2022-12-12T10:43:51.502Z,0.30
2022-12-12T10:46:28.936Z,0.30
2022-12-12T10:49:06.443Z,0.30
2022-12-12T10:51:41.608Z,0.40
2022-12-12T10:54:18.129Z,0.40
2022-12-12T10:57:20.464Z,0.30
2022-12-12T10:59:57.613Z,0.40
2022-12-12T11:02:38.182Z,0.40
2022-12-12T11:05:14.393Z,0.40
2022-12-12T11:07:48.730Z,0.50
2022-12-12T11:10:33.617Z,0.50
2022-12-12T11:13:19.312Z,0.50
2022-12-12T11:15:57.111Z,0.60
2022-12-12T11:18:31.973Z,0.60
2022-12-12T11:21:09.460Z,0.60
2022-12-12T11:23:44.966Z,0.70
2022-12-12T11:26:20.026Z,0.70
2022-12-12T11:29:01.054Z,0.70
2022-12-12T11:31:37.029Z,0.70
2022-12-12T11:34:12.316Z,0.80
2022-12-12T11:36:46.681Z,0.70
2022-12-12T11:39:27.370Z,0.80
2022-12-12T11:42:03.484Z,0.80
2022-12-12T11:44:41.095Z,0.80
2022-12-12T11:47:28.395Z,0.90
2022-12-12T11:50:09.325Z,0.80
2022-12-12T11:52:45.885Z,0.90
2022-12-12T11:55:22.304Z,0.90
2022-12-12T11:58:14.070Z,0.90
2022-12-12T12:00:54.940Z,1.20
2022-12-12T12:03:47.468Z,1.20
2022-12-12T12:06:33.100Z,1.20
2022-12-12T12:09:18.778Z,1.30
2022-12-12T12:11:58.568Z,1.20
2022-12-12T12:14:52.069Z,1.20
2022-12-12T12:17:32.506Z,1.20
2022-12-12T12:20:10.282Z,1.20
2022-12-12T12:22:50.166Z,1.10
2022-12-12T12:25:38.897Z,1.10
2022-12-12T12:28:09.475Z,1.10
2022-12-12T12:30:47.672Z,1.10
2022-12-12T12:33:34.828Z,1.10
2022-12-12T12:36:19.284Z,1.00
2022-12-12T12:39:00.428Z,1.00
2022-12-12T12:41:52.646Z,1.00
2022-12-12T12:44:27.631Z,0.90
2022-12-12T12:47:07.443Z,1.00
2022-12-12T12:49:45.580Z,1.00
2022-12-12T12:52:24.538Z,1.00
2022-12-12T12:55:00.021Z,1.00
2022-12-12T12:57:35.787Z,1.00
2022-12-12T13:00:18.868Z,0.90
2022-12-12T13:02:59.526Z,1.00
2022-12-12T13:05:39.735Z,1.00
2022-12-12T13:08:17.922Z,0.90
2022-12-12T13:10:55.967Z,1.00
2022-12-12T13:13:34.310Z,1.00
2022-12-12T13:16:10.934Z,0.90
2022-12-12T13:18:49.061Z,0.90
2022-12-12T13:21:31.172Z,0.90
2022-12-12T13:24:07.443Z,1.00
2022-12-12T13:26:47.187Z,1.00
2022-12-12T13:29:59.875Z,1.00
2022-12-12T13:32:34.055Z,0.90
2022-12-12T13:35:09.583Z,0.90
2022-12-12T13:37:51.163Z,0.90
2022-12-12T13:40:30.921Z,0.80
2022-12-12T13:43:10.141Z,0.80
2022-12-12T13:45:47.636Z,0.80
2022-12-12T13:48:40.201Z,0.80
2022-12-12T13:51:43.662Z,0.80
2022-12-12T13:54:48.924Z,0.70
2022-12-12T13:57:33.853Z,0.70
2022-12-12T14:00:29.160Z,0.60
2022-12-12T14:03:06.618Z,0.60
2022-12-12T14:05:45.173Z,0.50
2022-12-12T14:08:27.494Z,0.50
2022-12-12T14:11:07.753Z,0.50
2022-12-12T14:13:47.610Z,0.50
2022-12-12T14:16:24.878Z,0.40
2022-12-12T14:19:08.180Z,0.40
2022-12-12T14:21:47.839Z,0.30
2022-12-12T14:24:52.480Z,0.30
2022-12-12T14:27:59.559Z,0.30
2022-12-12T14:30:45.356Z,0.20
2022-12-12T14:33:49.715Z,0.20
2022-12-12T14:36:20.491Z,0.20
2022-12-12T14:38:58.072Z,0.20
2022-12-12T14:41:37.546Z,0.20
2022-12-12T14:44:37.559Z,0.20
2022-12-12T14:47:16.994Z,0.20
2022-12-12T14:49:51.350Z,0.10
2022-12-12T14:52:24.624Z,0.10
2022-12-12T14:54:59.202Z,0.00
2022-12-12T14:57:34.490Z,0.00
2022-12-12T15:00:19.259Z,0.00
2022-12-12T15:02:51.339Z,0.00
2022-12-12T15:05:28.502Z,0.10
2022-12-12T15:08:03.820Z,0.10
2022-12-12T15:10:38.211Z,0.00
2022-12-12T15:13:21.339Z,0.10
2022-12-12T15:15:55.702Z,0.10
2022-12-12T15:18:30.718Z,0.10
2022-12-12T15:21:07.840Z,0.00
2022-12-12T15:23:38.479Z,0.10
2022-12-12T15:26:19.545Z,0.10
2022-12-12T15:28:54.363Z,0.10
2022-12-12T15:31:29.024Z,0.10
2022-12-12T15:34:03.289Z,0.10
2022-12-12T15:36:39.720Z,0.10
2022-12-12T15:39:17.123Z,0.10
2022-12-12T15:41:51.534Z,0.10
2022-12-12T15:44:27.446Z,0.00
2022-12-12T15:47:02.120Z,0.00
2022-12-12T15:49:43.069Z,0.00
2022-12-12T15:52:16.228Z,0.00
2022-12-12T15:54:54.166Z,-0.10
2022-12-12T15:57:27.563Z,-0.10
2022-12-12T16:00:05.699Z,-0.10
2022-12-12T16:02:42.635Z,-0.10
2022-12-12T16:05:33.952Z,-0.10
2022-12-12T16:08:40.017Z,-0.20
2022-12-12T16:11:39.598Z,-0.30
2022-12-12T16:14:37.111Z,-0.30
2022-12-12T16:17:14.340Z,-0.30
2022-12-12T16:19:50.101Z,-0.30
2022-12-12T16:22:33.879Z,-0.40
2022-12-12T16:25:21.534Z,-0.40
2022-12-12T16:28:03.261Z,-0.40
2022-12-12T16:30:37.514Z,-0.40
2022-12-12T16:33:15.753Z,-0.40
2022-12-12T16:35:50.802Z,-0.40
2022-12-12T16:38:25.440Z,-0.40
2022-12-12T16:41:02.253Z,-0.40
2022-12-12T16:43:39.121Z,-0.40
2022-12-12T16:46:16.519Z,-0.40
2022-12-12T16:48:52.049Z,-0.50
2022-12-12T16:51:29.143Z,-0.50
2022-12-12T16:54:03.714Z,-0.50
2022-12-12T16:56:39.038Z,-0.40
2022-12-12T16:59:16.156Z,-0.40
2022-12-12T17:01:50.741Z,-0.50
2022-12-12T17:04:26.762Z,-0.50
2022-12-12T17:07:01.198Z,-0.50
2022-12-12T17:09:36.020Z,-0.60
2022-12-12T17:12:13.416Z,-0.60
2022-12-12T17:14:51.344Z,-0.60
2022-12-12T17:17:25.366Z,-0.60
2022-12-12T17:19:59.321Z,-0.70
2022-12-12T17:22:34.147Z,-0.70
2022-12-12T17:25:10.154Z,-0.80
2022-12-12T17:27:44.641Z,-0.80
2022-12-12T17:30:22.485Z,-0.90
2022-12-12T17:35:46.150Z,-0.90
2022-12-12T17:38:20.595Z,-1.00
2022-12-12T17:40:57.157Z,-1.00
2022-12-12T17:43:29.832Z,-1.00
2022-12-12T17:46:08.211Z,-1.10
2022-12-12T17:48:42.934Z,-1.10
2022-12-12T17:51:17.737Z,-1.10
2022-12-12T17:53:52.826Z,-1.10
2022-12-12T17:56:27.786Z,-1.10
2022-12-12T17:59:06.094Z,-1.10
2022-12-12T18:01:43.175Z,-1.10
2022-12-12T18:04:20.825Z,-1.10
2022-12-12T18:06:56.678Z,-1.20
2022-12-12T18:09:31.658Z,-1.20
2022-12-12T18:12:07.609Z,-1.20
2022-12-12T18:14:43.113Z,-1.20
2022-12-12T18:17:21.697Z,-1.20
2022-12-12T18:19:57.271Z,-1.20
2022-12-12T18:22:32.256Z,-1.20
2022-12-12T18:25:09.946Z,-1.20
2022-12-12T18:27:44.396Z,-1.20
2022-12-12T18:30:20.417Z,-1.20
2022-12-12T18:33:02.892Z,-1.20
2022-12-12T18:35:38.784Z,-1.20
2022-12-12T18:38:14.566Z,-1.20
2022-12-12T18:40:49.759Z,-1.20
2022-12-12T18:43:26.101Z,-1.30
2022-12-12T18:46:05.077Z,-1.30
2022-12-12T18:48:43.809Z,-1.30
2022-12-12T18:51:22.999Z,-1.30
2022-12-12T18:53:58.337Z,-1.30
2022-12-12T18:56:33.705Z,-1.30
2022-12-12T18:59:09.948Z,-1.30
2022-12-12T19:01:46.777Z,-1.30
2022-12-12T19:04:25.375Z,-1.30
2022-12-12T19:07:02.453Z,-1.30
2022-12-12T19:09:38.664Z,-1.30
2022-12-12T19:12:13.565Z,-1.40
2022-12-12T19:17:46.102Z,-1.40
2022-12-12T19:20:24.718Z,-1.40
2022-12-12T19:22:58.261Z,-1.30
2022-12-12T19:25:37.641Z,-1.30
2022-12-12T19:28:15.291Z,-1.30
2022-12-12T19:30:49.434Z,-1.40
2022-12-12T19:33:24.004Z,-1.40
2022-12-12T19:36:01.035Z,-1.40
2022-12-12T19:38:36.090Z,-1.50
2022-12-12T19:41:11.420Z,-1.40
2022-12-12T19:43:45.377Z,-1.50
2022-12-12T19:46:20.169Z,-1.50
2022-12-12T19:48:57.695Z,-1.40
2022-12-12T19:51:36.470Z,-1.40
2022-12-12T19:54:11.635Z,-1.50
2022-12-12T19:56:47.029Z,-1.50
2022-12-12T19:59:21.443Z,-1.40
2022-12-12T20:01:56.143Z,-1.40
2022-12-12T20:04:30.703Z,-1.40
2022-12-12T20:07:08.791Z,-1.40
2022-12-12T20:09:43.082Z,-1.40
2022-12-12T20:12:17.834Z,-1.40
2022-12-12T20:14:52.660Z,-1.40
2022-12-12T20:17:27.581Z,-1.40
2022-12-12T20:20:04.628Z,-1.40
2022-12-12T20:22:44.020Z,-1.40
2022-12-12T20:25:21.232Z,-1.20
2022-12-12T20:27:57.202Z,-1.20
2022-12-12T20:30:32.480Z,-1.30
2022-12-12T20:33:09.594Z,-1.30
2022-12-12T20:35:44.746Z,-1.30
2022-12-12T20:38:25.030Z,-1.30
2022-12-12T20:41:02.099Z,-1.30
2022-12-12T20:43:39.248Z,-1.30
2022-12-12T20:46:16.743Z,-1.30
2022-12-12T20:48:50.479Z,-1.40
2022-12-12T20:51:54.915Z,-1.40
2022-12-12T20:54:28.446Z,-1.40
2022-12-12T20:57:04.345Z,-1.40
2022-12-12T20:59:40.261Z,-1.40
2022-12-12T21:02:16.466Z,-1.40
2022-12-12T21:04:48.725Z,-1.40
2022-12-12T21:07:25.981Z,-1.40
2022-12-12T21:10:03.399Z,-1.50
2022-12-12T21:12:38.167Z,-1.40
2022-12-12T21:15:14.712Z,-1.40
2022-12-12T21:17:50.483Z,-1.50
2022-12-12T21:20:25.912Z,-1.40
2022-12-12T21:23:03.004Z,-1.40
2022-12-12T21:25:41.911Z,-1.50
2022-12-12T21:28:17.246Z,-1.40
2022-12-12T21:30:52.170Z,-1.40
2022-12-12T21:33:26.379Z,-1.50
2022-12-12T21:36:01.731Z,-1.40
2022-12-12T21:38:36.831Z,-1.40
2022-12-12T21:41:15.321Z,-1.40
2022-12-12T21:43:49.745Z,-1.50
2022-12-12T21:46:27.913Z,-1.50
2022-12-12T21:49:14.459Z,-1.60
2022-12-12T21:51:48.602Z,-1.50
2022-12-12T21:54:24.675Z,-1.50
2022-12-12T21:57:02.537Z,-1.60
2022-12-12T21:59:38.900Z,-1.60
2022-12-12T22:02:13.780Z,-1.60
2022-12-12T22:04:48.326Z,-1.70
2022-12-12T22:07:23.412Z,-1.70
2022-12-12T22:10:11.386Z,-1.70
2022-12-12T22:12:57.013Z,-1.70
2022-12-12T22:15:33.058Z,-1.70
2022-12-12T22:18:07.496Z,-1.70
2022-12-12T22:20:42.174Z,-1.70
2022-12-12T22:23:16.683Z,-1.80
2022-12-12T22:25:51.248Z,-1.80
2022-12-12T22:28:28.762Z,-1.80
2022-12-12T22:31:07.077Z,-1.80
2022-12-12T22:33:41.153Z,-1.80
2022-12-12T22:36:15.134Z,-1.80
2022-12-12T22:38:51.400Z,-1.80
2022-12-12T22:41:25.577Z,-1.80
2022-12-12T22:44:06.107Z,-1.80
2022-12-12T22:46:43.878Z,-1.70
2022-12-12T22:49:19.550Z,-1.80
2022-12-12T22:51:52.936Z,-1.80
2022-12-12T22:54:27.340Z,-1.80
2022-12-12T22:57:01.070Z,-1.80
2022-12-12T22:59:38.206Z,-1.80
2022-12-12T23:02:11.286Z,-1.80
2022-12-12T23:04:45.296Z,-1.90
2022-12-12T23:07:19.143Z,-1.80
2022-12-12T23:09:55.597Z,-1.80
2022-12-12T23:12:31.092Z,-1.80
2022-12-12T23:15:10.404Z,-1.80
2022-12-12T23:17:47.124Z,-1.80
2022-12-12T23:20:23.679Z,-1.80
2022-12-12T23:22:58.378Z,-1.80
2022-12-12T23:25:32.428Z,-1.80
2022-12-12T23:28:09.401Z,-1.80
2022-12-12T23:30:51.430Z,-1.80
2022-12-12T23:33:25.899Z,-1.80
2022-12-12T23:36:00.921Z,-1.80
2022-12-12T23:38:35.238Z,-1.80
2022-12-12T23:41:09.771Z,-1.80
2022-12-12T23:43:42.835Z,-1.80
2022-12-12T23:46:32.313Z,-1.80
2022-12-12T23:49:07.448Z,-1.80
2022-12-12T23:51:42.466Z,-1.80
2022-12-12T23:54:17.777Z,-1.80
2022-12-12T23:56:50.857Z,-1.80
2022-12-12T23:59:23.659Z,-1.80
